AirNav   Air Wisconsin Airman Trainee
 
 780 users online  

9K8 Kingman Airport - Clyde Cessna Field
Kingman, Kansas, USA

GOING TO KINGMAN?


FAA INFORMATION EFFECTIVE 23 MAY 2019

Location

FAA Identifier: 9K8
Lat/Long: 37-40-08.5000N / 098-07-26.0000W
37-40.141667N / 098-07.433333W
37.6690278 / -98.1238889
(estimated)
Elevation: 1606.7 ft. / 489.7 m (surveyed)
Variation: 06E (2005)
From city: 1 mile NW of KINGMAN, KS
Time zone: UTC -5 (UTC -6 during Standard Time)
Zip code: 67068

Airport Operations

Airport use: Open to the public
Activation date: 08/1945
Control tower: no
ARTCC: KANSAS CITY CENTER
FSS: WICHITA FLIGHT SERVICE STATION
NOTAMs facility: ICT (NOTAM-D service available)
Attendance: MON-FRI 0830-2000
Wind indicator: lighted
Segmented circle: yes
Lights: ACTVT REIL RWY 18 & 36; PAPI RWY 18 & 36; HIRL 18/36. - CTAF.
Beacon: white-green (lighted land airport)
Operates sunset to sunrise.

Airport Communications

CTAF/UNICOM: 122.8
WX AWOS-3: 119.325 (620-532-1272)
WICHITA APPROACH: 125.5
WICHITA DEPARTURE: 125.5

Nearby radio navigation aids

VOR radial/distance  VOR name  Freq  Var
HUTr201/21.6HUTCHINSON VOR/DME116.8004E
ICTr253/26.0WICHITA VORTAC113.8007E
ANYr357/30.7ANTHONY VORTAC112.9007E

 
NDB name  Hdg/Dist  Freq  Var  ID
PRATT090/29.835607EPTT .--. - -

Airport Services

Fuel available: 100LL
SELF SVC FUEL AVBL WITH CREDIT CARD.
Parking: hangars and tiedowns
Airframe service: MAJOR
Powerplant service: MAJOR
Bottled oxygen: NONE
Bulk oxygen: NONE

Runway Information

Runway 18/36

Dimensions: 4300 x 75 ft. / 1311 x 23 m
Surface: concrete, in fair condition
Weight bearing capacity: 
PCN 11 /R/C/X/U
Single wheel: 30.0
Double wheel: 30.0
Runway edge lights: high intensity
RUNWAY 18  RUNWAY 36
Latitude: 37-40.435357N37-39.734017N
Longitude: 098-07.279293W098-07.406043W
Elevation: 1598.9 ft.1596.7 ft.
Traffic pattern: rightleft
Runway heading: 182 magnetic, 188 true002 magnetic, 008 true
Markings: nonprecision, in good conditionnonprecision, in good condition
Visual slope indicator: 4-light PAPI on left (3.00 degrees glide path)4-light PAPI on left (3.00 degrees glide path)
Runway end identifier lights: yesyes
Touchdown point: yes, no lightsyes, no lights
Obstructions: 15 ft. road, 550 ft. from runway, 24:1 slope to clear45 ft. trees, 1290 ft. from runway, 24:1 slope to clear

Runway 11/29

Dimensions: 3400 x 60 ft. / 1036 x 18 m
Surface: concrete, in good condition
Weight bearing capacity: 
PCN 11 /R/C/X/U
Single wheel: 30.0
Double wheel: 30.0
RUNWAY 11  RUNWAY 29
Latitude: 37-40.336685N37-40.087660N
Longitude: 098-07.864075W098-07.232798W
Elevation: 1606.7 ft.1592.6 ft.
Traffic pattern: leftright
Runway heading: 111 magnetic, 117 true291 magnetic, 297 true
Markings: nonprecision, in good conditionnonprecision, in good condition
Touchdown point: yes, no lightsyes, no lights
Obstructions: 29 ft. trees, 1350 ft. from runway, 39:1 slope to clear30 ft. pline, marked, 978 ft. from runway, 25:1 slope to clear
POWER LINE MARKED WITH ORANGE BALLS.

Airport Ownership and Management from official FAA records

Ownership: Publicly-owned
Owner: CITY OF KINGMAN
324 NORTH MAIN
KINGMAN, KS 67068
Phone 620-532-3111
Manager: EZRA OLSON
PO BOX 262
KINGMAN, KS 67068
Phone (620) 532-1279

Airport Operational Statistics

Aircraft based on the field: 23
Single engine airplanes: 23
    
Aircraft operations: avg 26/day *
60% local general aviation
40% transient general aviation
* for 12-month period ending 31 July 2018

Instrument Procedures

NOTE: All procedures below are presented as PDF files. If you need a reader for these files, you should download the free Adobe Reader.

NOT FOR NAVIGATION. Please procure official charts for flight.
FAA instrument procedures published for use from 23 May 2019 at 0901Z to 20 June 2019 at 0900Z.

 
IAPs - Instrument Approach Procedures
RNAV (GPS) RWY 18   download (221KB)
RNAV (GPS) RWY 36   download (227KB)
NOTE: Special Take-Off Minimums/Departure Procedures apply **CHANGED**   download (273KB)

Other nearby airports with instrument procedures:

8K2 - Harper Municipal Airport (24 nm S)
KHUT - Hutchinson Regional Airport (27 nm NE)
KPTT - Pratt Regional Airport (30 nm W)
KANY - Anthony Municipal Airport (31 nm S)
KICT - Wichita Dwight D Eisenhower National Airport (33 nm E)
 
Loc | Ops | Rwys | IFR | FBO | Links
Com | Nav | Svcs | Stats | Notes

Kansas City Aviation Department
 
Area around 9K8 (Kingman Airport - Clyde Cessna Field)
 
Road maps at: MapQuest Bing Google
 
Aerial photo
WARNING: Photo may not be current or correct
Aerial photo of 9K8 (Kingman Airport - Clyde Cessna Field)
Do you have a better or more recent aerial photo of Kingman Airport - Clyde Cessna Field that you would like to share? If so, please send us your photo.

 
Sectional chart

 
Airport distance calculator
Flying to Kingman Airport - Clyde Cessna Field? Find the distance to fly.

From to 9K8

Sunrise and sunset
Times for 26-May-2019
 Local
(UTC-5)
 Zulu
(UTC)
Morning civil twilight05:4610:46
Sunrise06:1611:16
Sunset20:4301:43
Evening civil twilight21:1302:13

Current date and time
Zulu (UTC)  26-May-2019 12:13:25
Local (UTC-5)  26-May-2019 07:13:25
 
METAR
KHUT 
27nm NE 
261152Z 05005KT 8SM SCT023 BKN029 OVC120 M08/M08 A3004 RMK AO2 LTG DSNT ALQDS UPE01RAB1053E43 TSE17B18E37 SLP168 TS DSNT SE P0006 60062 70147 T10781083 53027 $
KPTT 
30nm W 
261155Z AUTO 32008KT 10SM BKN070 18/18 A3002 RMK AO2 LTG DSNT N 60022 70120 T01830175 10199 20157
KP28 
31nm SW 
261156Z AUTO 17017G26KT 19/17 RMK AO1 PK WND 11034/1120 WSHFT 1136 SLPNO P0005 60031 70201 T01890167 10200 20172 $
KICT 
33nm E 
261153Z 35007KT 7SM -TSRA BKN019CB BKN031 OVC110 18/17 A3005 RMK AO2 RAB23 TSB05 SLP166 OCNL LTGICCG ALQDS TS ALQDS MOVG NE P0000 60000 70106 T01830167 10189 20172 53029
KLYO 
41nm N 
261155Z AUTO 06004KT 5SM RA BR SCT035 SCT050 OVC100 18/17 A3006 RMK AO2 P0026 T01770170 10177 20153 60078 70185
KIAB 
41nm E 
261201Z AUTO 32010KT 9SM TSRA BKN007 OVC040 18/17 A3009 RMK AO2 TSB01 CIG 007V040 BKN V SCT SLP183 $
KBEC 
43nm E 
261155Z AUTO 34010KT 10SM -VCTSRA BKN009 BKN044 OVC060 18/17 A3009 RMK AO2 LTG DSNT ALQS 70068 T01780165 10183 20166
KAAO 
43nm E 
261154Z AUTO 34011KT 10SM VCTS -RA BKN010 BKN016 OVC044 18/17 A3010 RMK AO2 LTG DSNT ALQDS RAB47 SLP184 P0000 60046 70112 T01780167 10183 20167 51042
KEWK 
46nm NE 
261203Z AUTO 13015KT 9SM VCTS -RA FEW021 BKN070 OVC100 17/15 A3007 RMK AO2 WSHFT 1143 LTG DSNT ALQDS P0001
TAF
KHUT 
27nm NE 
261127Z 2612/2712 VRB10KT 6SM -TSRA SCT020 OVC040CB FM261300 15008KT P6SM VCSH BKN025 FM261800 15012KT P6SM SCT015 BKN045 FM270600 18014KT 6SM SHRA BR VCTS OVC025CB FM271000 17011KT P6SM BKN090 WS020/20040KT
KICT 
33nm E 
261127Z 2612/2712 VRB10KT 5SM TSRA BR SCT020 OVC040CB FM261600 16008KT P6SM VCSH SCT015 BKN030 FM261700 15010KT P6SM SCT015 BKN035 FM270700 18012KT 6SM SHRA BR VCTS OVC050CB FM271100 17012KT P6SM BKN040 WS010/20020KT
NOTAMs
Click for the latest NOTAMs
NOTAMs are issued by the DoD/FAA and will open in a separate window not controlled by AirNav.

 

 
 

FBO, Fuel Providers, and Aircraft Ground Support

  
 Business Name 
 
 Contact 
 
 Services / Description 
 
Fuel Prices
 
Comments
  
City of Kingman 620-532-1279
[web site]
[email]
Aviation fuel, Aircraft parking (ramp or tiedown), Flight training, Aircraft rental, Courtesy transportation, Pilots lounge / snooze room, Restrooms

More info about City of Kingman
independent
100LL
AS $4.69 
 Updated 06-May-2019
 
   write
AS=Assisted/Self Service
Update Fuel Prices
 

Aviation Businesses, Services, and Facilities

  
 Business Name 
 
 Contact 
 
 Services / Description 
 
Distance
 
Comments
  
Prairie Wind Aviation 620-755-4440
[email]
Flight training, Aircraft rental

More info about Prairie Wind Aviation
on airport  
   write
 

Would you like to see your business listed on this page?

 If your business provides an interesting product or service to pilots, flight crews, aircraft, or users of the Kingman Airport - Clyde Cessna Field, you should consider listing it here.  To start the listing process, click on the button below
 
Add a business
 

Other Pages about Kingman Airport - Clyde Cessna Field

www.cityofkingman.com/airport
 
Update a link
 
Copyright © AirNav, LLC. All rights reserved. Privacy Policy  Contact